Windflight — WDF6324 — position and weather

sailwx.info

Track history (hours):
 
Tides and Currents Weather Stations Pressure Air Temp Water Temp Dewpoint Dewpoint Depression Visibility Wind Speed Wind Dir Waves Ship Positions

Windflight

Owner: Windflight Inc., Medina, WA. More information available from US FCC via Universal Licensing System and Coast Guard Vessel Documentation Center.

Last reported at 2015-Aug-29 23:33 UTC. Time now 2015-Aug-29 23:37 UTC.
Position N 47°41' W 122°25'.

Length 21 m.

Type: Pleasure craft. MMSI: 367473060.

Date/timePositionNaut miles runAvg speedWind from/ knotsBaromVisibWave heightAir tempDewpointWater temp
2015-Aug-29 23:33N 47°41' W 122°25'0 0.0
2015-Aug-29 00:33N 47°41' W 122°25'7 7.2
2015-Aug-28 23:33N 47°47' W 122°28'9 8.8
2015-Aug-28 22:33N 47°56' W 122°33'36 9.0
2015-Aug-28 18:33N 48°25' W 123°04'1110.7
2015-Aug-28 17:33N 48°34' W 123°12'18 9.2
2015-Aug-28 15:33N 48°50' W 123°26'2 1.9
2015-Aug-28 14:24N 48°51' W 123°29'0 0.0
2015-Aug-28 13:24N 48°51' W 123°29'0 0.0
2015-Aug-28 10:33N 48°51' W 123°29'0 0.0
2015-Aug-28 09:03N 48°51' W 123°29'0 0.0
2015-Aug-28 08:30N 48°51' W 123°29'0 0.0
2015-Aug-28 06:33N 48°51' W 123°29'0 0.0
2015-Aug-27 18:28N 48°51' W 123°29'2 1.9
2015-Aug-27 17:33N 48°53' W 123°27'9 8.5
2015-Aug-27 16:28N 48°59' W 123°37'10 8.9
2015-Aug-27 15:22N 49°07' W 123°47'7 8.1
2015-Aug-27 14:33N 49°10' W 123°55'0 0.1
2015-Aug-27 08:23N 49°10' W 123°56'0 0.0
2015-Aug-27 07:32N 49°10' W 123°56'0 0.0
2015-Aug-27 06:29N 49°10' W 123°56'0 0.0
2015-Aug-27 05:20N 49°10' W 123°56'0 0.0
2015-Aug-27 04:20N 49°10' W 123°56'0 0.0
2015-Aug-27 03:20N 49°10' W 123°56'0 0.0
2015-Aug-27 02:32N 49°10' W 123°56'0 0.0
2015-Aug-27 01:32N 49°10' W 123°56'0 0.0
2015-Aug-26 22:14N 49°10' W 123°56'0 0.0
2015-Aug-26 21:14N 49°10' W 123°56'0 0.0
2015-Aug-26 20:24N 49°10' W 123°56'4 4.3
2015-Aug-26 19:32N 49°14' W 123°57'8 8.4
2015-Aug-26 18:33N 49°18' W 124°08'8 7.8
2015-Aug-26 17:33N 49°25' W 124°09'9 8.6
2015-Aug-26 16:33N 49°34' W 124°06'5 5.0
2015-Aug-26 15:33N 49°38' W 124°01'0 0.0
2015-Aug-26 14:31N 49°38' W 124°01'0 0.0
2015-Aug-26 13:31N 49°38' W 124°01'0 0.0
2015-Aug-26 12:25N 49°38' W 124°01'0 0.0
2015-Aug-26 08:13N 49°38' W 124°01'0 0.0
2015-Aug-26 07:22N 49°38' W 124°01'0 0.0
2015-Aug-26 06:10N 49°38' W 124°01'0 0.0
2015-Aug-26 05:31N 49°38' W 124°01'0 0.0
2015-Aug-26 03:31N 49°38' W 124°01'0 0.0
2015-Aug-26 02:31N 49°38' W 124°01'0 0.0
2015-Aug-26 00:31N 49°38' W 124°01'0 0.0
2015-Aug-25 23:31N 49°38' W 124°01'0 0.0
2015-Aug-25 22:31N 49°38' W 124°01'0 0.0
2015-Aug-25 21:31N 49°38' W 124°01'0 0.0
2015-Aug-25 20:28N 49°38' W 124°01'0 0.0
2015-Aug-25 19:31N 49°38' W 124°01'0 0.0
2015-Aug-25 18:31N 49°38' W 124°01'0 0.0
2015-Aug-25 17:31N 49°38' W 124°01'0 0.0
2015-Aug-25 16:31N 49°38' W 124°01'0 0.0
2015-Aug-25 15:28N 49°38' W 124°01'0 0.0
2015-Aug-25 14:31N 49°38' W 124°01'0 0.0
2015-Aug-25 13:25N 49°38' W 124°01'0 0.0
2015-Aug-25 11:19N 49°38' W 124°01'0 0.0
2015-Aug-25 10:13N 49°38' W 124°01'0 0.0
2015-Aug-25 09:28N 49°38' W 124°01'0 0.0
2015-Aug-25 07:31N 49°38' W 124°01'0 0.0
2015-Aug-25 06:31N 49°38' W 124°01'0 0.0
2015-Aug-25 05:31N 49°38' W 124°01'0 0.0
2015-Aug-25 04:19N 49°38' W 124°01'0 0.0
2015-Aug-25 03:22N 49°38' W 124°01'0 0.0
2015-Aug-25 02:31N 49°38' W 124°01'0 0.0
2015-Aug-25 01:31N 49°38' W 124°01'0 0.0
2015-Aug-25 00:22N 49°38' W 124°01'0 0.0
2015-Aug-24 23:31N 49°38' W 124°01'0 0.0
2015-Aug-24 22:28N 49°38' W 124°01'0 0.0
2015-Aug-24 21:31N 49°38' W 124°01'0 0.0
2015-Aug-24 20:33N 49°38' W 124°01'7 7.2
2015-Aug-24 19:33N 49°40' W 124°12'9 9.2
2015-Aug-24 18:33N 49°45' W 124°24'9 8.8
2015-Aug-24 17:33N 49°50' W 124°35'9 8.9
2015-Aug-24 16:32N 49°56' W 124°44'  
Track history (hours):
 
Tides and Currents Weather Stations Pressure Air Temp Water Temp Dewpoint Dewpoint Depression Visibility Wind Speed Wind Dir Waves Ship Positions

Windflight

Owner: Windflight Inc., Medina, WA. More information available from US FCC via Universal Licensing System and Coast Guard Vessel Documentation Center.

Last reported at 2015-Aug-29 23:33 UTC. Time now 2015-Aug-29 23:37 UTC.
Position N 47°41' W 122°25'.

Length 21 m.

Type: Pleasure craft. MMSI: 367473060.

Date/timePositionNaut miles runAvg speedWind from/ knotsBaromVisibWave heightAir tempDewpointWater temp
2015-Aug-29 23:33N 47°41' W 122°25'0 0.0
2015-Aug-29 00:33N 47°41' W 122°25'7 7.2
2015-Aug-28 23:33N 47°47' W 122°28'9 8.8
2015-Aug-28 22:33N 47°56' W 122°33'36 9.0
2015-Aug-28 18:33N 48°25' W 123°04'1110.7
2015-Aug-28 17:33N 48°34' W 123°12'18 9.2
2015-Aug-28 15:33N 48°50' W 123°26'2 1.9
2015-Aug-28 14:24N 48°51' W 123°29'0 0.0
2015-Aug-28 13:24N 48°51' W 123°29'0 0.0
2015-Aug-28 10:33N 48°51' W 123°29'0 0.0
2015-Aug-28 09:03N 48°51' W 123°29'0 0.0
2015-Aug-28 08:30N 48°51' W 123°29'0 0.0
2015-Aug-28 06:33N 48°51' W 123°29'0 0.0
2015-Aug-27 18:28N 48°51' W 123°29'2 1.9
2015-Aug-27 17:33N 48°53' W 123°27'9 8.5
2015-Aug-27 16:28N 48°59' W 123°37'10 8.9
2015-Aug-27 15:22N 49°07' W 123°47'7 8.1
2015-Aug-27 14:33N 49°10' W 123°55'0 0.1
2015-Aug-27 08:23N 49°10' W 123°56'0 0.0
2015-Aug-27 07:32N 49°10' W 123°56'0 0.0
2015-Aug-27 06:29N 49°10' W 123°56'0 0.0
2015-Aug-27 05:20N 49°10' W 123°56'0 0.0
2015-Aug-27 04:20N 49°10' W 123°56'0 0.0
2015-Aug-27 03:20N 49°10' W 123°56'0 0.0
2015-Aug-27 02:32N 49°10' W 123°56'0 0.0
2015-Aug-27 01:32N 49°10' W 123°56'0 0.0
2015-Aug-26 22:14N 49°10' W 123°56'0 0.0
2015-Aug-26 21:14N 49°10' W 123°56'0 0.0
2015-Aug-26 20:24N 49°10' W 123°56'4 4.3
2015-Aug-26 19:32N 49°14' W 123°57'8 8.4
2015-Aug-26 18:33N 49°18' W 124°08'8 7.8
2015-Aug-26 17:33N 49°25' W 124°09'9 8.6
2015-Aug-26 16:33N 49°34' W 124°06'5 5.0
2015-Aug-26 15:33N 49°38' W 124°01'0 0.0
2015-Aug-26 14:31N 49°38' W 124°01'0 0.0
2015-Aug-26 13:31N 49°38' W 124°01'0 0.0
2015-Aug-26 12:25N 49°38' W 124°01'0 0.0
2015-Aug-26 08:13N 49°38' W 124°01'0 0.0
2015-Aug-26 07:22N 49°38' W 124°01'0 0.0
2015-Aug-26 06:10N 49°38' W 124°01'0 0.0
2015-Aug-26 05:31N 49°38' W 124°01'0 0.0
2015-Aug-26 03:31N 49°38' W 124°01'0 0.0
2015-Aug-26 02:31N 49°38' W 124°01'0 0.0
2015-Aug-26 00:31N 49°38' W 124°01'0 0.0
2015-Aug-25 23:31N 49°38' W 124°01'0 0.0
2015-Aug-25 22:31N 49°38' W 124°01'0 0.0
2015-Aug-25 21:31N 49°38' W 124°01'0 0.0
2015-Aug-25 20:28N 49°38' W 124°01'0 0.0
2015-Aug-25 19:31N 49°38' W 124°01'0 0.0
2015-Aug-25 18:31N 49°38' W 124°01'0 0.0
2015-Aug-25 17:31N 49°38' W 124°01'0 0.0
2015-Aug-25 16:31N 49°38' W 124°01'0 0.0
2015-Aug-25 15:28N 49°38' W 124°01'0 0.0
2015-Aug-25 14:31N 49°38' W 124°01'0 0.0
2015-Aug-25 13:25N 49°38' W 124°01'0 0.0
2015-Aug-25 11:19N 49°38' W 124°01'0 0.0
2015-Aug-25 10:13N 49°38' W 124°01'0 0.0
2015-Aug-25 09:28N 49°38' W 124°01'0 0.0
2015-Aug-25 07:31N 49°38' W 124°01'0 0.0
2015-Aug-25 06:31N 49°38' W 124°01'0 0.0
2015-Aug-25 05:31N 49°38' W 124°01'0 0.0
2015-Aug-25 04:19N 49°38' W 124°01'0 0.0
2015-Aug-25 03:22N 49°38' W 124°01'0 0.0
2015-Aug-25 02:31N 49°38' W 124°01'0 0.0
2015-Aug-25 01:31N 49°38' W 124°01'0 0.0
2015-Aug-25 00:22N 49°38' W 124°01'0 0.0
2015-Aug-24 23:31N 49°38' W 124°01'0 0.0
2015-Aug-24 22:28N 49°38' W 124°01'0 0.0
2015-Aug-24 21:31N 49°38' W 124°01'0 0.0
2015-Aug-24 20:33N 49°38' W 124°01'7 7.2
2015-Aug-24 19:33N 49°40' W 124°12'9 9.2
2015-Aug-24 18:33N 49°45' W 124°24'9 8.8
2015-Aug-24 17:33N 49°50' W 124°35'9 8.9
2015-Aug-24 16:32N 49°56' W 124°44'  

Dump ship's entire track history